Point Arena, California
Current Conditions -  °F | °C
As of 12:46 PM on Saturday 25 Oct 2014 (Local Time) from KUKI Reporting Station
Light Rain Light Rain  
Wind Chill: 60°   Ceiling: 3600
Heat Index: 60°   Visibility: 3mi
Dew Point: 55°   Wind: 7mph
Humidity: 83%   Direction: 130°SE
Pressure: 29.99"   Gusts: NA
Location:  38.91°N, 123.69°W
Report Text: KUKI 251946Z AUTO 13006KT 3SM -RA SCT024 BKN036 OVC070 16/13 A2999 RMK AO2 P0008 T01560128
Loading
Personal Weather Stations






























Interactive Weather Map
Tropical Storm Tracking
New forecast layout! Learn more

10-Day Weather Forecast

Advertisements
Track Severe Weather on mobile